sensor_id;sensor_type;location;lat;lon;timestamp;P1;durP1;ratioP1;P2;durP2;ratioP2
84144;SDS011;74264;48.988;12.040;2024-03-02T00:00:21;137.10;;;52.55;;
84144;SDS011;74264;48.988;12.040;2024-03-02T00:02:48;141.05;;;51.67;;
84144;SDS011;74264;48.988;12.040;2024-03-02T00:05:15;129.60;;;47.88;;
84144;SDS011;74264;48.988;12.040;2024-03-02T00:07:42;124.85;;;46.95;;
84144;SDS011;74264;48.988;12.040;2024-03-02T00:10:10;152.80;;;51.42;;
84144;SDS011;74264;48.988;12.040;2024-03-02T00:12:37;134.40;;;50.88;;
84144;SDS011;74264;48.988;12.040;2024-03-02T00:15:46;127.20;;;50.40;;
84144;SDS011;74264;48.988;12.040;2024-03-02T00:17:55;116.63;;;46.05;;
84144;SDS011;74264;48.988;12.040;2024-03-02T00:20:24;108.32;;;45.33;;
84144;SDS011;74264;48.988;12.040;2024-03-02T00:23:13;145.10;;;50.05;;
84144;SDS011;74264;48.988;12.040;2024-03-02T00:25:41;125.43;;;46.80;;
84144;SDS011;74264;48.988;12.040;2024-03-02T00:28:16;148.45;;;50.83;;
84144;SDS011;74264;48.988;12.040;2024-03-02T00:31:02;120.55;;;43.90;;
84144;SDS011;74264;48.988;12.040;2024-03-02T00:33:31;111.60;;;43.03;;
84144;SDS011;74264;48.988;12.040;2024-03-02T00:36:02;107.32;;;42.90;;
84144;SDS011;74264;48.988;12.040;2024-03-02T00:38:29;108.57;;;42.33;;
84144;SDS011;74264;48.988;12.040;2024-03-02T00:40:58;105.70;;;42.28;;
84144;SDS011;74264;48.988;12.040;2024-03-02T00:46:06;128.18;;;43.80;;
84144;SDS011;74264;48.988;12.040;2024-03-02T00:48:32;96.97;;;40.20;;
84144;SDS011;74264;48.988;12.040;2024-03-02T00:51:01;113.30;;;41.97;;
84144;SDS011;74264;48.988;12.040;2024-03-02T00:53:31;115.28;;;43.25;;
84144;SDS011;74264;48.988;12.040;2024-03-02T00:55:58;116.65;;;43.83;;
84144;SDS011;74264;48.988;12.040;2024-03-02T00:58:25;121.55;;;45.38;;
84144;SDS011;74264;48.988;12.040;2024-03-02T01:00:50;111.28;;;44.13;;
84144;SDS011;74264;48.988;12.040;2024-03-02T01:03:16;115.32;;;44.95;;
84144;SDS011;74264;48.988;12.040;2024-03-02T01:05:42;105.68;;;42.63;;
84144;SDS011;74264;48.988;12.040;2024-03-02T01:08:08;132.32;;;47.38;;
84144;SDS011;74264;48.988;12.040;2024-03-02T01:10:34;125.55;;;44.85;;
84144;SDS011;74264;48.988;12.040;2024-03-02T01:13:00;115.05;;;43.63;;
84144;SDS011;74264;48.988;12.040;2024-03-02T01:15:25;108.18;;;44.30;;
84144;SDS011;74264;48.988;12.040;2024-03-02T01:17:51;111.03;;;45.20;;
84144;SDS011;74264;48.988;12.040;2024-03-02T01:20:16;107.45;;;42.78;;
84144;SDS011;74264;48.988;12.040;2024-03-02T01:22:42;128.85;;;45.55;;
84144;SDS011;74264;48.988;12.040;2024-03-02T01:25:08;108.45;;;41.78;;
84144;SDS011;74264;48.988;12.040;2024-03-02T01:27:34;130.88;;;45.67;;
84144;SDS011;74264;48.988;12.040;2024-03-02T01:30:00;114.60;;;45.15;;
84144;SDS011;74264;48.988;12.040;2024-03-02T01:32:25;121.03;;;44.63;;
84144;SDS011;74264;48.988;12.040;2024-03-02T01:34:51;138.20;;;47.42;;
84144;SDS011;74264;48.988;12.040;2024-03-02T01:37:16;126.68;;;43.58;;
84144;SDS011;74264;48.988;12.040;2024-03-02T01:39:42;101.43;;;40.05;;
84144;SDS011;74264;48.988;12.040;2024-03-02T01:42:07;103.05;;;39.78;;
84144;SDS011;74264;48.988;12.040;2024-03-02T01:44:33;111.15;;;43.67;;
84144;SDS011;74264;48.988;12.040;2024-03-02T01:46:59;100.43;;;40.38;;
84144;SDS011;74264;48.988;12.040;2024-03-02T01:49:24;104.28;;;40.42;;
84144;SDS011;74264;48.988;12.040;2024-03-02T01:51:50;108.65;;;42.70;;
84144;SDS011;74264;48.988;12.040;2024-03-02T01:54:16;120.35;;;46.75;;
84144;SDS011;74264;48.988;12.040;2024-03-02T01:56:41;112.38;;;42.25;;
84144;SDS011;74264;48.988;12.040;2024-03-02T01:59:07;122.53;;;43.17;;
84144;SDS011;74264;48.988;12.040;2024-03-02T02:01:33;112.93;;;40.90;;
84144;SDS011;74264;48.988;12.040;2024-03-02T02:03:58;94.95;;;36.92;;
84144;SDS011;74264;48.988;12.040;2024-03-02T02:06:24;115.53;;;43.80;;
84144;SDS011;74264;48.988;12.040;2024-03-02T02:08:49;109.85;;;42.13;;
84144;SDS011;74264;48.988;12.040;2024-03-02T02:11:15;117.53;;;42.33;;
84144;SDS011;74264;48.988;12.040;2024-03-02T02:13:42;128.82;;;42.90;;
84144;SDS011;74264;48.988;12.040;2024-03-02T02:16:07;112.20;;;41.45;;
84144;SDS011;74264;48.988;12.040;2024-03-02T02:18:33;122.10;;;44.17;;
84144;SDS011;74264;48.988;12.040;2024-03-02T02:20:59;112.40;;;42.97;;
84144;SDS011;74264;48.988;12.040;2024-03-02T02:23:25;130.57;;;45.55;;
84144;SDS011;74264;48.988;12.040;2024-03-02T02:25:50;128.63;;;42.90;;
84144;SDS011;74264;48.988;12.040;2024-03-02T02:28:16;101.43;;;39.63;;
84144;SDS011;74264;48.988;12.040;2024-03-02T02:30:41;107.53;;;41.35;;
84144;SDS011;74264;48.988;12.040;2024-03-02T02:33:08;97.95;;;39.88;;
84144;SDS011;74264;48.988;12.040;2024-03-02T02:35:34;110.90;;;40.47;;
84144;SDS011;74264;48.988;12.040;2024-03-02T02:38:00;102.88;;;40.63;;
84144;SDS011;74264;48.988;12.040;2024-03-02T02:40:26;101.97;;;39.03;;
84144;SDS011;74264;48.988;12.040;2024-03-02T02:42:52;101.53;;;40.42;;
84144;SDS011;74264;48.988;12.040;2024-03-02T02:45:17;109.40;;;40.88;;
84144;SDS011;74264;48.988;12.040;2024-03-02T02:47:43;105.40;;;39.78;;
84144;SDS011;74264;48.988;12.040;2024-03-02T02:50:10;95.95;;;38.33;;
84144;SDS011;74264;48.988;12.040;2024-03-02T02:52:37;106.10;;;39.38;;
84144;SDS011;74264;48.988;12.040;2024-03-02T02:55:06;93.65;;;38.25;;
84144;SDS011;74264;48.988;12.040;2024-03-02T02:57:33;95.38;;;39.50;;
84144;SDS011;74264;48.988;12.040;2024-03-02T03:00:10;106.00;;;39.45;;
84144;SDS011;74264;48.988;12.040;2024-03-02T03:02:41;99.97;;;40.03;;
84144;SDS011;74264;48.988;12.040;2024-03-02T03:05:08;98.97;;;39.10;;
84144;SDS011;74264;48.988;12.040;2024-03-02T03:07:35;110.63;;;41.45;;
84144;SDS011;74264;48.988;12.040;2024-03-02T03:10:02;97.70;;;39.15;;
84144;SDS011;74264;48.988;12.040;2024-03-02T03:12:29;98.72;;;38.90;;
84144;SDS011;74264;48.988;12.040;2024-03-02T03:14:56;104.53;;;41.15;;
84144;SDS011;74264;48.988;12.040;2024-03-02T03:17:22;103.97;;;40.47;;
84144;SDS011;74264;48.988;12.040;2024-03-02T03:19:48;108.45;;;41.13;;
84144;SDS011;74264;48.988;12.040;2024-03-02T03:22:15;113.45;;;42.45;;
84144;SDS011;74264;48.988;12.040;2024-03-02T03:24:40;114.45;;;40.95;;
84144;SDS011;74264;48.988;12.040;2024-03-02T03:27:06;122.97;;;43.28;;
84144;SDS011;74264;48.988;12.040;2024-03-02T03:29:32;124.53;;;44.00;;
84144;SDS011;74264;48.988;12.040;2024-03-02T03:31:57;118.30;;;41.83;;
84144;SDS011;74264;48.988;12.040;2024-03-02T03:34:23;130.68;;;45.65;;
84144;SDS011;74264;48.988;12.040;2024-03-02T03:36:49;126.90;;;45.30;;
84144;SDS011;74264;48.988;12.040;2024-03-02T03:39:14;114.43;;;43.40;;
84144;SDS011;74264;48.988;12.040;2024-03-02T03:41:40;126.63;;;44.75;;
84144;SDS011;74264;48.988;12.040;2024-03-02T03:44:06;143.80;;;47.85;;
84144;SDS011;74264;48.988;12.040;2024-03-02T03:46:31;147.50;;;47.33;;
84144;SDS011;74264;48.988;12.040;2024-03-02T03:48:57;144.18;;;46.80;;
84144;SDS011;74264;48.988;12.040;2024-03-02T03:51:22;123.40;;;46.35;;
84144;SDS011;74264;48.988;12.040;2024-03-02T03:53:48;144.52;;;45.25;;
84144;SDS011;74264;48.988;12.040;2024-03-02T03:56:14;159.10;;;46.88;;
84144;SDS011;74264;48.988;12.040;2024-03-02T03:58:40;151.25;;;47.92;;
84144;SDS011;74264;48.988;12.040;2024-03-02T04:01:05;167.18;;;50.53;;
84144;SDS011;74264;48.988;12.040;2024-03-02T04:03:31;175.02;;;52.05;;
84144;SDS011;74264;48.988;12.040;2024-03-02T04:05:56;157.20;;;49.78;;
84144;SDS011;74264;48.988;12.040;2024-03-02T04:08:22;185.90;;;51.95;;
84144;SDS011;74264;48.988;12.040;2024-03-02T04:10:48;146.48;;;48.08;;
84144;SDS011;74264;48.988;12.040;2024-03-02T04:13:14;168.32;;;48.25;;
84144;SDS011;74264;48.988;12.040;2024-03-02T04:15:39;169.60;;;51.53;;
84144;SDS011;74264;48.988;12.040;2024-03-02T04:18:06;141.25;;;48.53;;
84144;SDS011;74264;48.988;12.040;2024-03-02T04:20:32;140.13;;;46.90;;
84144;SDS011;74264;48.988;12.040;2024-03-02T04:22:57;156.80;;;48.95;;
84144;SDS011;74264;48.988;12.040;2024-03-02T04:25:23;145.40;;;44.75;;
84144;SDS011;74264;48.988;12.040;2024-03-02T04:27:48;135.25;;;46.88;;
84144;SDS011;74264;48.988;12.040;2024-03-02T04:30:14;118.40;;;42.83;;
84144;SDS011;74264;48.988;12.040;2024-03-02T04:32:40;153.05;;;47.42;;
84144;SDS011;74264;48.988;12.040;2024-03-02T04:35:06;133.25;;;44.92;;
84144;SDS011;74264;48.988;12.040;2024-03-02T04:37:35;124.35;;;41.20;;
84144;SDS011;74264;48.988;12.040;2024-03-02T04:40:01;144.50;;;46.15;;
84144;SDS011;74264;48.988;12.040;2024-03-02T04:42:26;134.55;;;45.15;;
84144;SDS011;74264;48.988;12.040;2024-03-02T04:44:52;115.47;;;42.10;;
84144;SDS011;74264;48.988;12.040;2024-03-02T04:47:17;145.13;;;43.25;;
84144;SDS011;74264;48.988;12.040;2024-03-02T04:49:43;146.02;;;43.50;;
84144;SDS011;74264;48.988;12.040;2024-03-02T04:52:09;161.13;;;49.28;;
84144;SDS011;74264;48.988;12.040;2024-03-02T04:54:34;138.30;;;42.55;;
84144;SDS011;74264;48.988;12.040;2024-03-02T04:57:20;117.35;;;42.25;;
84144;SDS011;74264;48.988;12.040;2024-03-02T04:59:46;120.05;;;42.47;;
84144;SDS011;74264;48.988;12.040;2024-03-02T05:02:11;118.82;;;40.85;;
84144;SDS011;74264;48.988;12.040;2024-03-02T05:04:39;122.07;;;42.45;;
84144;SDS011;74264;48.988;12.040;2024-03-02T05:07:05;115.68;;;42.28;;
84144;SDS011;74264;48.988;12.040;2024-03-02T05:09:31;125.72;;;44.13;;
84144;SDS011;74264;48.988;12.040;2024-03-02T05:11:56;123.95;;;40.30;;
84144;SDS011;74264;48.988;12.040;2024-03-02T05:14:42;105.20;;;38.78;;
84144;SDS011;74264;48.988;12.040;2024-03-02T05:17:08;103.10;;;40.97;;
84144;SDS011;74264;48.988;12.040;2024-03-02T05:19:34;101.30;;;37.40;;
84144;SDS011;74264;48.988;12.040;2024-03-02T05:21:59;114.15;;;40.33;;
84144;SDS011;74264;48.988;12.040;2024-03-02T05:24:25;104.50;;;40.38;;
84144;SDS011;74264;48.988;12.040;2024-03-02T05:26:53;120.15;;;40.30;;
84144;SDS011;74264;48.988;12.040;2024-03-02T05:29:18;120.45;;;40.38;;
84144;SDS011;74264;48.988;12.040;2024-03-02T05:31:46;118.13;;;41.42;;
84144;SDS011;74264;48.988;12.040;2024-03-02T05:34:12;101.70;;;38.53;;
84144;SDS011;74264;48.988;12.040;2024-03-02T05:36:38;92.25;;;35.42;;
84144;SDS011;74264;48.988;12.040;2024-03-02T05:39:04;102.22;;;38.40;;
84144;SDS011;74264;48.988;12.040;2024-03-02T05:41:31;110.05;;;39.92;;
84144;SDS011;74264;48.988;12.040;2024-03-02T05:43:57;92.93;;;34.80;;
84144;SDS011;74264;48.988;12.040;2024-03-02T05:46:23;171.52;;;45.90;;
84144;SDS011;74264;48.988;12.040;2024-03-02T05:48:48;103.97;;;40.15;;
84144;SDS011;74264;48.988;12.040;2024-03-02T05:51:14;102.25;;;36.90;;
84144;SDS011;74264;48.988;12.040;2024-03-02T05:53:39;135.23;;;40.58;;
84144;SDS011;74264;48.988;12.040;2024-03-02T05:56:05;92.97;;;35.45;;
84144;SDS011;74264;48.988;12.040;2024-03-02T05:58:32;99.80;;;37.80;;
84144;SDS011;74264;48.988;12.040;2024-03-02T06:01:16;92.75;;;35.97;;
84144;SDS011;74264;48.988;12.040;2024-03-02T06:03:43;110.57;;;40.63;;
84144;SDS011;74264;48.988;12.040;2024-03-02T06:06:09;159.05;;;43.38;;
84144;SDS011;74264;48.988;12.040;2024-03-02T06:08:34;114.00;;;40.03;;
84144;SDS011;74264;48.988;12.040;2024-03-02T06:11:00;122.53;;;41.83;;
84144;SDS011;74264;48.988;12.040;2024-03-02T06:13:26;104.40;;;41.83;;
84144;SDS011;74264;48.988;12.040;2024-03-02T06:15:52;123.65;;;44.47;;
84144;SDS011;74264;48.988;12.040;2024-03-02T06:18:17;109.35;;;41.42;;
84144;SDS011;74264;48.988;12.040;2024-03-02T06:20:43;112.75;;;42.60;;
84144;SDS011;74264;48.988;12.040;2024-03-02T06:23:08;102.05;;;39.78;;
84144;SDS011;74264;48.988;12.040;2024-03-02T06:25:34;89.95;;;39.10;;
84144;SDS011;74264;48.988;12.040;2024-03-02T06:28:00;121.28;;;41.25;;
84144;SDS011;74264;48.988;12.040;2024-03-02T06:30:25;110.85;;;42.65;;
84144;SDS011;74264;48.988;12.040;2024-03-02T06:32:51;113.13;;;41.97;;
84144;SDS011;74264;48.988;12.040;2024-03-02T06:35:16;147.57;;;45.78;;
84144;SDS011;74264;48.988;12.040;2024-03-02T06:37:42;126.55;;;44.50;;
84144;SDS011;74264;48.988;12.040;2024-03-02T06:40:08;122.90;;;42.47;;
84144;SDS011;74264;48.988;12.040;2024-03-02T06:42:34;127.53;;;44.63;;
84144;SDS011;74264;48.988;12.040;2024-03-02T06:45:01;110.10;;;42.75;;
84144;SDS011;74264;48.988;12.040;2024-03-02T06:47:27;124.35;;;45.72;;
84144;SDS011;74264;48.988;12.040;2024-03-02T06:49:53;121.00;;;46.13;;
84144;SDS011;74264;48.988;12.040;2024-03-02T06:52:19;136.82;;;46.90;;
84144;SDS011;74264;48.988;12.040;2024-03-02T06:54:45;146.38;;;48.17;;
84144;SDS011;74264;48.988;12.040;2024-03-02T06:57:11;173.73;;;53.05;;
84144;SDS011;74264;48.988;12.040;2024-03-02T06:59:37;133.95;;;45.90;;
84144;SDS011;74264;48.988;12.040;2024-03-02T07:02:03;117.82;;;44.85;;
84144;SDS011;74264;48.988;12.040;2024-03-02T07:04:29;174.23;;;51.33;;
84144;SDS011;74264;48.988;12.040;2024-03-02T07:06:54;122.38;;;45.50;;
84144;SDS011;74264;48.988;12.040;2024-03-02T07:09:20;149.52;;;50.70;;
84144;SDS011;74264;48.988;12.040;2024-03-02T07:11:48;129.82;;;48.53;;
84144;SDS011;74264;48.988;12.040;2024-03-02T07:14:14;126.40;;;45.72;;
84144;SDS011;74264;48.988;12.040;2024-03-02T07:16:40;115.90;;;43.38;;
84144;SDS011;74264;48.988;12.040;2024-03-02T07:19:06;113.20;;;44.03;;
84144;SDS011;74264;48.988;12.040;2024-03-02T07:21:31;130.75;;;51.20;;
84144;SDS011;74264;48.988;12.040;2024-03-02T07:23:58;101.32;;;42.20;;
84144;SDS011;74264;48.988;12.040;2024-03-02T07:26:24;102.28;;;40.05;;
84144;SDS011;74264;48.988;12.040;2024-03-02T07:28:51;110.28;;;43.75;;
84144;SDS011;74264;48.988;12.040;2024-03-02T07:31:17;113.72;;;44.15;;
84144;SDS011;74264;48.988;12.040;2024-03-02T07:33:46;115.22;;;44.85;;
84144;SDS011;74264;48.988;12.040;2024-03-02T07:36:12;117.25;;;45.60;;
84144;SDS011;74264;48.988;12.040;2024-03-02T07:38:38;116.55;;;44.67;;
84144;SDS011;74264;48.988;12.040;2024-03-02T07:41:04;131.98;;;47.80;;
84144;SDS011;74264;48.988;12.040;2024-03-02T07:43:30;103.50;;;43.60;;
84144;SDS011;74264;48.988;12.040;2024-03-02T07:45:57;134.32;;;47.92;;
84144;SDS011;74264;48.988;12.040;2024-03-02T07:48:22;130.15;;;46.83;;
84144;SDS011;74264;48.988;12.040;2024-03-02T07:50:48;121.40;;;46.92;;
84144;SDS011;74264;48.988;12.040;2024-03-02T07:53:14;154.68;;;51.90;;
84144;SDS011;74264;48.988;12.040;2024-03-02T07:55:40;126.75;;;46.92;;
84144;SDS011;74264;48.988;12.040;2024-03-02T07:58:06;121.60;;;46.20;;
84144;SDS011;74264;48.988;12.040;2024-03-02T08:00:32;92.68;;;41.22;;
84144;SDS011;74264;48.988;12.040;2024-03-02T08:02:59;101.30;;;42.38;;
84144;SDS011;74264;48.988;12.040;2024-03-02T08:05:26;86.68;;;39.20;;
84144;SDS011;74264;48.988;12.040;2024-03-02T08:07:52;86.25;;;40.78;;
84144;SDS011;74264;48.988;12.040;2024-03-02T08:10:18;95.18;;;40.95;;
84144;SDS011;74264;48.988;12.040;2024-03-02T08:12:45;101.50;;;41.05;;
84144;SDS011;74264;48.988;12.040;2024-03-02T08:15:10;104.30;;;43.83;;
84144;SDS011;74264;48.988;12.040;2024-03-02T08:17:38;97.75;;;41.78;;
84144;SDS011;74264;48.988;12.040;2024-03-02T08:20:10;86.83;;;40.07;;
84144;SDS011;74264;48.988;12.040;2024-03-02T08:22:36;97.57;;;43.83;;
84144;SDS011;74264;48.988;12.040;2024-03-02T08:25:03;87.13;;;38.97;;
84144;SDS011;74264;48.988;12.040;2024-03-02T08:27:29;80.22;;;39.25;;
84144;SDS011;74264;48.988;12.040;2024-03-02T08:29:57;88.43;;;41.20;;
84144;SDS011;74264;48.988;12.040;2024-03-02T08:32:22;92.47;;;42.50;;
84144;SDS011;74264;48.988;12.040;2024-03-02T08:34:48;85.90;;;39.85;;
84144;SDS011;74264;48.988;12.040;2024-03-02T08:37:14;86.13;;;41.10;;
84144;SDS011;74264;48.988;12.040;2024-03-02T08:39:39;84.68;;;39.60;;
84144;SDS011;74264;48.988;12.040;2024-03-02T08:42:05;72.00;;;36.03;;
84144;SDS011;74264;48.988;12.040;2024-03-02T08:44:31;69.10;;;34.75;;
84144;SDS011;74264;48.988;12.040;2024-03-02T08:46:57;70.53;;;37.10;;
84144;SDS011;74264;48.988;12.040;2024-03-02T08:49:22;68.18;;;34.13;;
84144;SDS011;74264;48.988;12.040;2024-03-02T08:51:48;67.18;;;35.47;;
84144;SDS011;74264;48.988;12.040;2024-03-02T08:54:23;66.70;;;34.75;;
84144;SDS011;74264;48.988;12.040;2024-03-02T08:56:49;62.47;;;33.85;;
84144;SDS011;74264;48.988;12.040;2024-03-02T08:59:15;67.45;;;34.70;;
84144;SDS011;74264;48.988;12.040;2024-03-02T09:01:42;60.40;;;32.65;;
84144;SDS011;74264;48.988;12.040;2024-03-02T09:04:08;65.15;;;35.20;;
84144;SDS011;74264;48.988;12.040;2024-03-02T09:06:34;64.65;;;36.15;;
84144;SDS011;74264;48.988;12.040;2024-03-02T09:09:00;67.32;;;33.83;;
84144;SDS011;74264;48.988;12.040;2024-03-02T09:11:25;65.25;;;34.50;;
84144;SDS011;74264;48.988;12.040;2024-03-02T09:13:51;65.63;;;33.47;;
84144;SDS011;74264;48.988;12.040;2024-03-02T09:16:18;70.72;;;35.17;;
84144;SDS011;74264;48.988;12.040;2024-03-02T09:18:44;56.50;;;30.55;;
84144;SDS011;74264;48.988;12.040;2024-03-02T09:21:09;61.40;;;32.72;;
84144;SDS011;74264;48.988;12.040;2024-03-02T09:23:35;59.30;;;31.40;;
84144;SDS011;74264;48.988;12.040;2024-03-02T09:26:01;55.92;;;31.73;;
84144;SDS011;74264;48.988;12.040;2024-03-02T09:28:26;57.45;;;30.75;;
84144;SDS011;74264;48.988;12.040;2024-03-02T09:30:52;56.88;;;31.85;;
84144;SDS011;74264;48.988;12.040;2024-03-02T09:33:17;64.28;;;33.65;;
84144;SDS011;74264;48.988;12.040;2024-03-02T09:35:43;64.95;;;34.40;;
84144;SDS011;74264;48.988;12.040;2024-03-02T09:38:09;68.70;;;34.67;;
84144;SDS011;74264;48.988;12.040;2024-03-02T09:40:34;62.03;;;32.90;;
84144;SDS011;74264;48.988;12.040;2024-03-02T09:43:00;64.82;;;35.85;;
84144;SDS011;74264;48.988;12.040;2024-03-02T09:45:27;65.68;;;35.42;;
84144;SDS011;74264;48.988;12.040;2024-03-02T09:47:52;70.53;;;35.13;;
84144;SDS011;74264;48.988;12.040;2024-03-02T09:50:18;66.20;;;32.92;;
84144;SDS011;74264;48.988;12.040;2024-03-02T09:52:44;62.97;;;33.20;;
84144;SDS011;74264;48.988;12.040;2024-03-02T09:55:13;60.53;;;32.55;;
84144;SDS011;74264;48.988;12.040;2024-03-02T09:57:41;60.55;;;33.38;;
84144;SDS011;74264;48.988;12.040;2024-03-02T10:00:08;62.28;;;33.80;;
84144;SDS011;74264;48.988;12.040;2024-03-02T10:02:34;57.70;;;31.67;;
84144;SDS011;74264;48.988;12.040;2024-03-02T10:05:00;57.92;;;31.80;;
84144;SDS011;74264;48.988;12.040;2024-03-02T10:07:25;55.92;;;31.40;;
84144;SDS011;74264;48.988;12.040;2024-03-02T10:09:51;64.68;;;32.45;;
84144;SDS011;74264;48.988;12.040;2024-03-02T10:12:17;56.13;;;30.65;;
84144;SDS011;74264;48.988;12.040;2024-03-02T10:14:43;59.40;;;33.45;;
84144;SDS011;74264;48.988;12.040;2024-03-02T10:17:13;53.20;;;29.27;;
84144;SDS011;74264;48.988;12.040;2024-03-02T10:19:41;55.35;;;29.85;;
84144;SDS011;74264;48.988;12.040;2024-03-02T10:22:07;54.80;;;31.42;;
84144;SDS011;74264;48.988;12.040;2024-03-02T10:24:38;60.63;;;30.75;;
84144;SDS011;74264;48.988;12.040;2024-03-02T10:27:14;54.55;;;30.38;;
84144;SDS011;74264;48.988;12.040;2024-03-02T10:29:52;54.47;;;29.17;;
84144;SDS011;74264;48.988;12.040;2024-03-02T10:32:18;54.83;;;30.20;;
84144;SDS011;74264;48.988;12.040;2024-03-02T10:34:47;53.65;;;29.80;;
84144;SDS011;74264;48.988;12.040;2024-03-02T10:37:15;52.92;;;29.60;;
84144;SDS011;74264;48.988;12.040;2024-03-02T10:39:42;49.25;;;28.35;;
84144;SDS011;74264;48.988;12.040;2024-03-02T10:42:08;51.60;;;27.35;;
84144;SDS011;74264;48.988;12.040;2024-03-02T10:44:34;46.28;;;26.65;;
84144;SDS011;74264;48.988;12.040;2024-03-02T10:47:01;47.60;;;24.77;;
84144;SDS011;74264;48.988;12.040;2024-03-02T10:49:32;38.00;;;21.95;;
84144;SDS011;74264;48.988;12.040;2024-03-02T10:51:58;44.15;;;24.38;;
84144;SDS011;74264;48.988;12.040;2024-03-02T10:54:24;43.30;;;23.52;;
84144;SDS011;74264;48.988;12.040;2024-03-02T10:56:58;43.80;;;23.58;;
84144;SDS011;74264;48.988;12.040;2024-03-02T11:02:01;42.78;;;23.65;;
84144;SDS011;74264;48.988;12.040;2024-03-02T11:04:29;44.15;;;24.02;;
84144;SDS011;74264;48.988;12.040;2024-03-02T11:06:59;48.33;;;23.65;;
84144;SDS011;74264;48.988;12.040;2024-03-02T11:09:30;39.65;;;23.67;;
84144;SDS011;74264;48.988;12.040;2024-03-02T11:14:34;40.83;;;23.30;;
84144;SDS011;74264;48.988;12.040;2024-03-02T11:17:05;38.20;;;22.52;;
84144;SDS011;74264;48.988;12.040;2024-03-02T11:19:32;44.33;;;22.92;;
84144;SDS011;74264;48.988;12.040;2024-03-02T11:21:59;36.28;;;22.40;;
84144;SDS011;74264;48.988;12.040;2024-03-02T11:26:58;44.67;;;23.17;;
84144;SDS011;74264;48.988;12.040;2024-03-02T11:32:06;37.35;;;23.77;;
84144;SDS011;74264;48.988;12.040;2024-03-02T11:34:40;40.50;;;23.38;;
84144;SDS011;74264;48.988;12.040;2024-03-02T11:37:11;37.42;;;23.00;;
84144;SDS011;74264;48.988;12.040;2024-03-02T11:39:41;39.25;;;23.00;;
84144;SDS011;74264;48.988;12.040;2024-03-02T11:42:09;38.53;;;22.08;;
84144;SDS011;74264;48.988;12.040;2024-03-02T11:44:36;39.17;;;21.80;;
84144;SDS011;74264;48.988;12.040;2024-03-02T11:47:06;38.58;;;22.65;;
84144;SDS011;74264;48.988;12.040;2024-03-02T11:49:43;36.65;;;22.30;;
84144;SDS011;74264;48.988;12.040;2024-03-02T11:52:11;36.78;;;21.83;;
84144;SDS011;74264;48.988;12.040;2024-03-02T11:54:38;39.25;;;23.23;;
84144;SDS011;74264;48.988;12.040;2024-03-02T11:57:08;38.78;;;23.10;;
84144;SDS011;74264;48.988;12.040;2024-03-02T11:59:34;40.80;;;22.48;;
84144;SDS011;74264;48.988;12.040;2024-03-02T12:02:00;37.90;;;22.80;;
84144;SDS011;74264;48.988;12.040;2024-03-02T12:04:26;36.40;;;21.30;;
84144;SDS011;74264;48.988;12.040;2024-03-02T12:06:59;38.78;;;22.50;;
84144;SDS011;74264;48.988;12.040;2024-03-02T12:09:26;37.53;;;22.08;;
84144;SDS011;74264;48.988;12.040;2024-03-02T12:12:02;39.05;;;22.58;;
84144;SDS011;74264;48.988;12.040;2024-03-02T12:14:29;37.00;;;21.73;;
84144;SDS011;74264;48.988;12.040;2024-03-02T12:16:56;39.65;;;22.27;;
84144;SDS011;74264;48.988;12.040;2024-03-02T12:19:24;36.17;;;21.98;;
84144;SDS011;74264;48.988;12.040;2024-03-02T12:21:50;36.28;;;21.15;;
84144;SDS011;74264;48.988;12.040;2024-03-02T12:24:16;35.33;;;20.95;;
84144;SDS011;74264;48.988;12.040;2024-03-02T12:26:42;36.72;;;22.10;;
84144;SDS011;74264;48.988;12.040;2024-03-02T12:29:08;39.05;;;23.80;;
84144;SDS011;74264;48.988;12.040;2024-03-02T12:31:34;35.90;;;22.00;;
84144;SDS011;74264;48.988;12.040;2024-03-02T12:34:01;32.67;;;21.50;;
84144;SDS011;74264;48.988;12.040;2024-03-02T12:36:28;39.20;;;23.92;;
84144;SDS011;74264;48.988;12.040;2024-03-02T12:38:53;39.15;;;24.52;;
84144;SDS011;74264;48.988;12.040;2024-03-02T12:41:20;38.05;;;21.55;;
84144;SDS011;74264;48.988;12.040;2024-03-02T12:43:46;41.80;;;23.83;;
84144;SDS011;74264;48.988;12.040;2024-03-02T12:46:12;35.92;;;21.83;;
84144;SDS011;74264;48.988;12.040;2024-03-02T12:48:38;38.60;;;23.73;;
84144;SDS011;74264;48.988;12.040;2024-03-02T12:51:06;35.88;;;21.27;;
84144;SDS011;74264;48.988;12.040;2024-03-02T12:53:32;39.38;;;23.00;;
84144;SDS011;74264;48.988;12.040;2024-03-02T12:55:57;35.33;;;20.90;;
84144;SDS011;74264;48.988;12.040;2024-03-02T12:58:24;36.88;;;22.45;;
84144;SDS011;74264;48.988;12.040;2024-03-02T13:00:49;36.08;;;21.90;;
84144;SDS011;74264;48.988;12.040;2024-03-02T13:03:17;38.70;;;21.70;;
84144;SDS011;74264;48.988;12.040;2024-03-02T13:05:48;37.63;;;20.80;;
84144;SDS011;74264;48.988;12.040;2024-03-02T13:08:16;37.08;;;21.90;;
84144;SDS011;74264;48.988;12.040;2024-03-02T13:10:41;39.38;;;22.58;;
84144;SDS011;74264;48.988;12.040;2024-03-02T13:13:07;39.42;;;21.58;;
84144;SDS011;74264;48.988;12.040;2024-03-02T13:15:33;34.38;;;21.50;;
84144;SDS011;74264;48.988;12.040;2024-03-02T13:18:00;32.25;;;20.88;;
84144;SDS011;74264;48.988;12.040;2024-03-02T13:20:29;34.22;;;21.20;;
84144;SDS011;74264;48.988;12.040;2024-03-02T13:22:58;35.60;;;20.85;;
84144;SDS011;74264;48.988;12.040;2024-03-02T13:25:23;34.10;;;20.98;;
84144;SDS011;74264;48.988;12.040;2024-03-02T13:27:49;43.60;;;22.80;;
84144;SDS011;74264;48.988;12.040;2024-03-02T13:30:14;40.50;;;23.95;;
84144;SDS011;74264;48.988;12.040;2024-03-02T13:32:40;35.95;;;21.90;;
84144;SDS011;74264;48.988;12.040;2024-03-02T13:35:06;40.45;;;22.33;;
84144;SDS011;74264;48.988;12.040;2024-03-02T13:37:31;34.85;;;21.45;;
84144;SDS011;74264;48.988;12.040;2024-03-02T13:39:57;38.35;;;22.63;;
84144;SDS011;74264;48.988;12.040;2024-03-02T13:42:23;35.70;;;21.40;;
84144;SDS011;74264;48.988;12.040;2024-03-02T13:44:49;38.90;;;22.40;;
84144;SDS011;74264;48.988;12.040;2024-03-02T13:47:16;38.38;;;21.45;;
84144;SDS011;74264;48.988;12.040;2024-03-02T13:49:43;34.97;;;20.00;;
84144;SDS011;74264;48.988;12.040;2024-03-02T13:52:09;32.97;;;20.85;;
84144;SDS011;74264;48.988;12.040;2024-03-02T13:54:39;30.25;;;19.33;;
84144;SDS011;74264;48.988;12.040;2024-03-02T13:57:05;33.40;;;21.08;;
84144;SDS011;74264;48.988;12.040;2024-03-02T13:59:32;32.63;;;21.02;;
84144;SDS011;74264;48.988;12.040;2024-03-02T14:01:59;33.30;;;19.33;;
84144;SDS011;74264;48.988;12.040;2024-03-02T14:04:24;35.33;;;20.25;;
84144;SDS011;74264;48.988;12.040;2024-03-02T14:06:50;36.17;;;20.88;;
84144;SDS011;74264;48.988;12.040;2024-03-02T14:09:16;36.90;;;21.73;;
84144;SDS011;74264;48.988;12.040;2024-03-02T14:11:44;38.00;;;20.95;;